ENQR

Snorre B Oilp

Snorre B Oilp, Norway
METAR ENQR 170950Z AUTO 16029KT 9999NDV FEW017/// 07/04 Q1012 W///S6
Observed Flight Rules
Dec-17 @ 09:50 UTC (27 minutes ago)
Wind Clouds
160° at 29 knots
  • Few at 1,700' AGL
Temperatures Readings
Current 7°C / 45°F
Dewpoint 4°C / 39°F
Humidity 81%
Altimeter 29.88" Hg
Pressure 1012 hPa
Elevation 10
METAR ENQR 170950Z AUTO 16029KT 9999NDV FEW017/// 07/04 Q1012 W///S6
Observed Flight Rules
Dec-17 @ 09:50 UTC
(27 minutes ago)
Wind
160° at 29 knots
Clouds
  • Few at 1,700' AGL
Temperature Dewpoint
7°C / 45°F 4°C / 39°F
Humidity Altimeter Pressure
81% 29.88" Hg 1012 hPa